sensor_id;sensor_type;location;lat;lon;timestamp;pressure;altitude;pressure_sealevel;temperature;humidity
21803;BME280;18591;47.080;22.214;2024-01-25T00:01:47;99823.94;;;7.12;62.64
21803;BME280;18591;47.080;22.214;2024-01-25T00:03:50;99814.13;;;7.11;62.37
21803;BME280;18591;47.080;22.214;2024-01-25T00:05:52;99818.75;;;7.05;62.38
21803;BME280;18591;47.080;22.214;2024-01-25T00:07:55;99815.28;;;6.98;62.47
21803;BME280;18591;47.080;22.214;2024-01-25T00:09:58;99817.16;;;6.93;62.49
21803;BME280;18591;47.080;22.214;2024-01-25T00:12:00;99818.22;;;6.84;62.51
21803;BME280;18591;47.080;22.214;2024-01-25T00:14:03;99808.63;;;6.74;62.82
21803;BME280;18591;47.080;22.214;2024-01-25T00:16:06;99810.44;;;6.73;62.61
21803;BME280;18591;47.080;22.214;2024-01-25T00:18:09;99811.44;;;6.66;62.73
21803;BME280;18591;47.080;22.214;2024-01-25T00:20:12;99812.47;;;6.58;62.81
21803;BME280;18591;47.080;22.214;2024-01-25T00:22:15;99808.13;;;6.52;62.67
21803;BME280;18591;47.080;22.214;2024-01-25T00:24:17;99801.97;;;6.47;62.79
21803;BME280;18591;47.080;22.214;2024-01-25T00:26:20;99804.66;;;6.47;62.86
21803;BME280;18591;47.080;22.214;2024-01-25T00:28:22;99803.28;;;6.24;63.01
21803;BME280;18591;47.080;22.214;2024-01-25T00:30:25;99801.41;;;6.29;63.09
21803;BME280;18591;47.080;22.214;2024-01-25T00:32:27;99802.28;;;6.30;63.10
21803;BME280;18591;47.080;22.214;2024-01-25T00:34:30;99798.69;;;6.31;63.12
21803;BME280;18591;47.080;22.214;2024-01-25T00:36:33;99805.16;;;6.18;63.36
21803;BME280;18591;47.080;22.214;2024-01-25T00:38:36;99805.91;;;6.26;62.85
21803;BME280;18591;47.080;22.214;2024-01-25T00:40:39;99812.16;;;6.23;63.24
21803;BME280;18591;47.080;22.214;2024-01-25T00:42:46;99817.47;;;6.25;62.83
21803;BME280;18591;47.080;22.214;2024-01-25T00:44:58;99815.69;;;6.24;62.74
21803;BME280;18591;47.080;22.214;2024-01-25T00:47:01;99813.94;;;6.24;62.77
21803;BME280;18591;47.080;22.214;2024-01-25T00:49:04;99802.34;;;6.25;62.75
21803;BME280;18591;47.080;22.214;2024-01-25T00:51:07;99807.00;;;6.14;62.51
21803;BME280;18591;47.080;22.214;2024-01-25T00:53:10;99806.06;;;6.17;62.68
21803;BME280;18591;47.080;22.214;2024-01-25T00:55:13;99805.06;;;6.22;62.85
21803;BME280;18591;47.080;22.214;2024-01-25T00:57:17;99812.03;;;6.32;63.37
21803;BME280;18591;47.080;22.214;2024-01-25T00:59:20;99794.09;;;6.39;63.29
21803;BME280;18591;47.080;22.214;2024-01-25T01:01:24;99801.22;;;6.40;63.15
21803;BME280;18591;47.080;22.214;2024-01-25T01:03:27;99794.91;;;6.44;63.35
21803;BME280;18591;47.080;22.214;2024-01-25T01:05:30;99799.31;;;6.47;63.25
21803;BME280;18591;47.080;22.214;2024-01-25T01:07:34;99806.38;;;6.51;63.60
21803;BME280;18591;47.080;22.214;2024-01-25T01:09:36;99807.31;;;6.48;63.44
21803;BME280;18591;47.080;22.214;2024-01-25T01:11:39;99796.56;;;6.53;63.84
21803;BME280;18591;47.080;22.214;2024-01-25T01:13:41;99800.97;;;6.54;63.47
21803;BME280;18591;47.080;22.214;2024-01-25T01:15:44;99797.41;;;6.55;63.59
21803;BME280;18591;47.080;22.214;2024-01-25T01:17:46;99791.09;;;6.58;63.20
21803;BME280;18591;47.080;22.214;2024-01-25T01:19:49;99790.34;;;6.51;63.19
21803;BME280;18591;47.080;22.214;2024-01-25T01:21:51;99786.88;;;6.47;63.62
21803;BME280;18591;47.080;22.214;2024-01-25T01:23:54;99785.16;;;6.42;63.48
21803;BME280;18591;47.080;22.214;2024-01-25T01:25:56;99792.34;;;6.40;63.16
21803;BME280;18591;47.080;22.214;2024-01-25T01:27:59;99794.22;;;6.35;63.39
21803;BME280;18591;47.080;22.214;2024-01-25T01:30:01;99797.00;;;6.27;63.59
21803;BME280;18591;47.080;22.214;2024-01-25T01:32:04;99798.06;;;6.17;63.53
21803;BME280;18591;47.080;22.214;2024-01-25T01:34:06;99793.59;;;6.16;63.71
21803;BME280;18591;47.080;22.214;2024-01-25T01:36:09;99795.63;;;6.01;64.31
21803;BME280;18591;47.080;22.214;2024-01-25T01:38:12;99793.91;;;5.99;64.02
21803;BME280;18591;47.080;22.214;2024-01-25T01:40:14;99781.31;;;6.05;63.65
21803;BME280;18591;47.080;22.214;2024-01-25T01:42:17;99783.09;;;6.06;63.62
21803;BME280;18591;47.080;22.214;2024-01-25T01:44:20;99778.84;;;5.95;63.65
21803;BME280;18591;47.080;22.214;2024-01-25T01:46:36;99769.19;;;5.84;63.65
21803;BME280;18591;47.080;22.214;2024-01-25T01:48:45;99771.75;;;5.90;63.32
21803;BME280;18591;47.080;22.214;2024-01-25T01:50:47;99766.41;;;5.90;63.14
21803;BME280;18591;47.080;22.214;2024-01-25T01:52:51;99763.75;;;5.90;63.27
21803;BME280;18591;47.080;22.214;2024-01-25T01:54:54;99762.84;;;5.92;63.16
21803;BME280;18591;47.080;22.214;2024-01-25T01:56:56;99760.19;;;5.90;62.74
21803;BME280;18591;47.080;22.214;2024-01-25T01:59:08;99763.03;;;5.81;62.64
21803;BME280;18591;47.080;22.214;2024-01-25T02:01:13;99758.69;;;5.74;63.03
21803;BME280;18591;47.080;22.214;2024-01-25T02:03:15;99751.56;;;5.74;63.09
21803;BME280;18591;47.080;22.214;2024-01-25T02:05:18;99760.50;;;5.70;62.86
21803;BME280;18591;47.080;22.214;2024-01-25T02:07:20;99758.75;;;5.69;62.91
21803;BME280;18591;47.080;22.214;2024-01-25T02:09:23;99753.41;;;5.71;62.63
21803;BME280;18591;47.080;22.214;2024-01-25T02:11:26;99763.25;;;5.64;62.91
21803;BME280;18591;47.080;22.214;2024-01-25T02:13:28;99755.38;;;5.58;63.09
21803;BME280;18591;47.080;22.214;2024-01-25T02:15:31;99746.47;;;5.57;62.71
21803;BME280;18591;47.080;22.214;2024-01-25T02:17:33;99747.38;;;5.58;62.70
21803;BME280;18591;47.080;22.214;2024-01-25T02:19:36;99745.81;;;5.41;63.06
21803;BME280;18591;47.080;22.214;2024-01-25T02:21:39;99751.94;;;5.46;63.05
21803;BME280;18591;47.080;22.214;2024-01-25T02:23:41;99745.75;;;5.46;62.82
21803;BME280;18591;47.080;22.214;2024-01-25T02:25:44;99746.88;;;5.30;64.22
21803;BME280;18591;47.080;22.214;2024-01-25T02:27:47;99748.34;;;5.51;64.15
21803;BME280;18591;47.080;22.214;2024-01-25T02:29:49;99740.22;;;5.60;64.44
21803;BME280;18591;47.080;22.214;2024-01-25T02:31:52;99744.38;;;5.78;64.42
21803;BME280;18591;47.080;22.214;2024-01-25T02:33:54;99738.94;;;5.85;64.01
21803;BME280;18591;47.080;22.214;2024-01-25T02:35:57;99739.75;;;5.94;63.95
21803;BME280;18591;47.080;22.214;2024-01-25T02:38:00;99744.09;;;5.98;64.04
21803;BME280;18591;47.080;22.214;2024-01-25T02:40:02;99750.25;;;6.03;64.33
21803;BME280;18591;47.080;22.214;2024-01-25T02:42:06;99753.78;;;6.05;63.67
21803;BME280;18591;47.080;22.214;2024-01-25T02:44:08;99751.97;;;6.07;63.80
21803;BME280;18591;47.080;22.214;2024-01-25T02:46:10;99752.03;;;6.04;64.57
21803;BME280;18591;47.080;22.214;2024-01-25T02:48:13;99754.72;;;6.01;64.07
21803;BME280;18591;47.080;22.214;2024-01-25T02:50:16;99753.91;;;5.99;63.88
21803;BME280;18591;47.080;22.214;2024-01-25T02:52:19;99755.75;;;5.94;64.17
21803;BME280;18591;47.080;22.214;2024-01-25T02:54:21;99742.81;;;5.66;64.37
21803;BME280;18591;47.080;22.214;2024-01-25T02:56:24;99747.97;;;5.75;64.38
21803;BME280;18591;47.080;22.214;2024-01-25T02:58:26;99736.63;;;5.62;64.34
21803;BME280;18591;47.080;22.214;2024-01-25T03:00:29;99737.47;;;5.64;64.23
21803;BME280;18591;47.080;22.214;2024-01-25T03:02:32;99729.31;;;5.77;64.56
21803;BME280;18591;47.080;22.214;2024-01-25T03:04:34;99737.13;;;5.87;64.66
21803;BME280;18591;47.080;22.214;2024-01-25T03:06:37;99731.75;;;5.94;64.89
21803;BME280;18591;47.080;22.214;2024-01-25T03:08:40;99744.97;;;5.98;64.64
21803;BME280;18591;47.080;22.214;2024-01-25T03:10:42;99740.47;;;6.03;64.40
21803;BME280;18591;47.080;22.214;2024-01-25T03:12:45;99748.44;;;6.06;64.59
21803;BME280;18591;47.080;22.214;2024-01-25T03:14:48;99742.97;;;6.13;64.45
21803;BME280;18591;47.080;22.214;2024-01-25T03:16:51;99733.19;;;6.15;64.26
21803;BME280;18591;47.080;22.214;2024-01-25T03:18:54;99727.91;;;6.08;64.50
21803;BME280;18591;47.080;22.214;2024-01-25T03:20:56;99728.72;;;6.15;64.01
21803;BME280;18591;47.080;22.214;2024-01-25T03:22:59;99725.97;;;6.18;64.21
21803;BME280;18591;47.080;22.214;2024-01-25T03:25:01;99740.19;;;6.19;64.10
21803;BME280;18591;47.080;22.214;2024-01-25T03:27:04;99735.72;;;6.22;64.27
21803;BME280;18591;47.080;22.214;2024-01-25T03:29:06;99738.44;;;6.19;64.37
21803;BME280;18591;47.080;22.214;2024-01-25T03:31:09;99733.03;;;6.22;64.09
21803;BME280;18591;47.080;22.214;2024-01-25T03:33:11;99725.84;;;6.26;64.24
21803;BME280;18591;47.080;22.214;2024-01-25T03:35:14;99724.03;;;6.28;64.05
21803;BME280;18591;47.080;22.214;2024-01-25T03:37:17;99730.25;;;6.28;64.10
21803;BME280;18591;47.080;22.214;2024-01-25T03:39:19;99739.97;;;6.32;63.86
21803;BME280;18591;47.080;22.214;2024-01-25T03:41:22;99733.78;;;6.32;64.04
21803;BME280;18591;47.080;22.214;2024-01-25T03:43:25;99730.13;;;6.36;64.42
21803;BME280;18591;47.080;22.214;2024-01-25T03:45:43;99724.69;;;6.41;64.05
21803;BME280;18591;47.080;22.214;2024-01-25T03:47:45;99722.03;;;6.42;63.70
21803;BME280;18591;47.080;22.214;2024-01-25T03:49:48;99718.44;;;6.43;63.69
21803;BME280;18591;47.080;22.214;2024-01-25T03:51:51;99718.44;;;6.43;63.96
21803;BME280;18591;47.080;22.214;2024-01-25T03:53:54;99728.19;;;6.44;63.93
21803;BME280;18591;47.080;22.214;2024-01-25T03:55:57;99722.84;;;6.46;63.90
21803;BME280;18591;47.080;22.214;2024-01-25T03:57:59;99734.38;;;6.48;63.75
21803;BME280;18591;47.080;22.214;2024-01-25T04:00:02;99732.63;;;6.45;63.49
21803;BME280;18591;47.080;22.214;2024-01-25T04:02:06;99729.91;;;6.47;63.54
21803;BME280;18591;47.080;22.214;2024-01-25T04:04:08;99724.56;;;6.47;63.74
21803;BME280;18591;47.080;22.214;2024-01-25T04:06:13;99736.09;;;6.49;63.62
21803;BME280;18591;47.080;22.214;2024-01-25T04:08:15;99731.66;;;6.49;63.87
21803;BME280;18591;47.080;22.214;2024-01-25T04:10:18;99732.63;;;6.45;63.80
21803;BME280;18591;47.080;22.214;2024-01-25T04:12:20;99738.72;;;6.52;63.74
21803;BME280;18591;47.080;22.214;2024-01-25T04:14:23;99739.66;;;6.49;63.46
21803;BME280;18591;47.080;22.214;2024-01-25T04:16:26;99743.38;;;6.42;63.50
21803;BME280;18591;47.080;22.214;2024-01-25T04:18:29;99732.84;;;6.31;63.55
21803;BME280;18591;47.080;22.214;2024-01-25T04:20:32;99734.78;;;6.25;63.42
21803;BME280;18591;47.080;22.214;2024-01-25T04:22:36;99737.53;;;6.19;63.38
21803;BME280;18591;47.080;22.214;2024-01-25T04:24:39;99742.16;;;6.09;63.80
21803;BME280;18591;47.080;22.214;2024-01-25T04:26:42;99725.38;;;6.02;63.57
21803;BME280;18591;47.080;22.214;2024-01-25T04:28:44;99725.53;;;5.92;63.66
21803;BME280;18591;47.080;22.214;2024-01-25T04:30:47;99725.44;;;5.98;63.68
21803;BME280;18591;47.080;22.214;2024-01-25T04:32:49;99724.50;;;6.00;63.78
21803;BME280;18591;47.080;22.214;2024-01-25T04:34:52;99720.13;;;5.93;63.23
21803;BME280;18591;47.080;22.214;2024-01-25T04:36:54;99722.91;;;5.87;63.63
21803;BME280;18591;47.080;22.214;2024-01-25T04:38:57;99722.13;;;5.82;63.75
21803;BME280;18591;47.080;22.214;2024-01-25T04:40:59;99720.25;;;5.85;63.82
21803;BME280;18591;47.080;22.214;2024-01-25T04:43:02;99712.25;;;5.88;63.86
21803;BME280;18591;47.080;22.214;2024-01-25T04:45:05;99720.16;;;5.95;63.71
21803;BME280;18591;47.080;22.214;2024-01-25T04:47:09;99722.84;;;5.92;63.76
21803;BME280;18591;47.080;22.214;2024-01-25T04:49:11;99723.84;;;5.86;63.48
21803;BME280;18591;47.080;22.214;2024-01-25T04:51:17;99729.25;;;5.81;63.79
21803;BME280;18591;47.080;22.214;2024-01-25T04:53:20;99736.84;;;5.49;63.95
21803;BME280;18591;47.080;22.214;2024-01-25T04:55:23;99733.94;;;5.64;63.81
21803;BME280;18591;47.080;22.214;2024-01-25T04:57:25;99736.66;;;5.61;63.73
21803;BME280;18591;47.080;22.214;2024-01-25T04:59:28;99731.38;;;5.56;63.83
21803;BME280;18591;47.080;22.214;2024-01-25T05:01:31;99733.13;;;5.59;63.81
21803;BME280;18591;47.080;22.214;2024-01-25T05:03:34;99739.59;;;5.42;63.60
21803;BME280;18591;47.080;22.214;2024-01-25T05:05:37;99736.00;;;5.45;63.98
21803;BME280;18591;47.080;22.214;2024-01-25T05:07:39;99734.19;;;5.47;63.97
21803;BME280;18591;47.080;22.214;2024-01-25T05:09:42;99735.97;;;5.48;63.88
21803;BME280;18591;47.080;22.214;2024-01-25T05:11:44;99741.41;;;5.40;63.91
21803;BME280;18591;47.080;22.214;2024-01-25T05:13:47;99738.69;;;5.43;63.91
21803;BME280;18591;47.080;22.214;2024-01-25T05:15:49;99730.69;;;5.43;63.70
21803;BME280;18591;47.080;22.214;2024-01-25T05:17:52;99726.50;;;5.26;63.72
21803;BME280;18591;47.080;22.214;2024-01-25T05:19:55;99723.66;;;5.38;63.53
21803;BME280;18591;47.080;22.214;2024-01-25T05:21:57;99720.03;;;5.43;63.55
21803;BME280;18591;47.080;22.214;2024-01-25T05:24:00;99714.59;;;5.50;64.22
21803;BME280;18591;47.080;22.214;2024-01-25T05:26:02;99718.06;;;5.58;64.13
21803;BME280;18591;47.080;22.214;2024-01-25T05:28:05;99723.38;;;5.58;63.69
21803;BME280;18591;47.080;22.214;2024-01-25T05:30:08;99724.22;;;5.61;63.84
21803;BME280;18591;47.080;22.214;2024-01-25T05:32:12;99726.81;;;5.64;63.82
21803;BME280;18591;47.080;22.214;2024-01-25T05:34:14;99723.22;;;5.67;63.71
21803;BME280;18591;47.080;22.214;2024-01-25T05:36:17;99724.09;;;5.71;63.36
21803;BME280;18591;47.080;22.214;2024-01-25T05:38:19;99726.81;;;5.66;63.75
21803;BME280;18591;47.080;22.214;2024-01-25T05:40:22;99719.81;;;5.59;63.58
21803;BME280;18591;47.080;22.214;2024-01-25T05:42:25;99728.66;;;5.59;63.62
21803;BME280;18591;47.080;22.214;2024-01-25T05:44:27;99724.16;;;5.64;64.13
21803;BME280;18591;47.080;22.214;2024-01-25T05:46:30;99726.75;;;5.71;63.80
21803;BME280;18591;47.080;22.214;2024-01-25T05:48:32;99734.69;;;5.72;63.20
21803;BME280;18591;47.080;22.214;2024-01-25T05:50:35;99735.63;;;5.71;63.36
21803;BME280;18591;47.080;22.214;2024-01-25T05:52:38;99734.00;;;5.61;63.77
21803;BME280;18591;47.080;22.214;2024-01-25T05:54:40;99738.47;;;5.59;64.69
21803;BME280;18591;47.080;22.214;2024-01-25T05:56:43;99731.09;;;5.75;64.34
21803;BME280;18591;47.080;22.214;2024-01-25T05:58:46;99738.13;;;5.82;63.92
21803;BME280;18591;47.080;22.214;2024-01-25T06:00:48;99725.59;;;5.87;63.71
21803;BME280;18591;47.080;22.214;2024-01-25T06:02:51;99729.06;;;5.90;63.61
21803;BME280;18591;47.080;22.214;2024-01-25T06:04:54;99721.91;;;5.97;63.83
21803;BME280;18591;47.080;22.214;2024-01-25T06:06:59;99728.91;;;6.04;63.64
21803;BME280;18591;47.080;22.214;2024-01-25T06:09:01;99727.03;;;6.08;63.65
21803;BME280;18591;47.080;22.214;2024-01-25T06:11:14;99724.38;;;6.08;63.55
21803;BME280;18591;47.080;22.214;2024-01-25T06:13:17;99727.91;;;6.10;63.76
21803;BME280;18591;47.080;22.214;2024-01-25T06:15:20;99727.84;;;6.15;63.64
21803;BME280;18591;47.080;22.214;2024-01-25T06:17:22;99723.31;;;6.20;63.54
21803;BME280;18591;47.080;22.214;2024-01-25T06:19:25;99728.69;;;6.17;63.35
21803;BME280;18591;47.080;22.214;2024-01-25T06:21:27;99732.19;;;6.19;63.18
21803;BME280;18591;47.080;22.214;2024-01-25T06:23:30;99734.03;;;6.17;63.39
21803;BME280;18591;47.080;22.214;2024-01-25T06:25:33;99724.16;;;6.22;63.34
21803;BME280;18591;47.080;22.214;2024-01-25T06:27:37;99734.78;;;6.23;63.58
21803;BME280;18591;47.080;22.214;2024-01-25T06:29:39;99730.25;;;6.28;63.46
21803;BME280;18591;47.080;22.214;2024-01-25T06:31:43;99741.78;;;6.30;63.01
21803;BME280;18591;47.080;22.214;2024-01-25T06:33:46;99733.72;;;6.35;63.08
21803;BME280;18591;47.080;22.214;2024-01-25T06:35:55;99726.59;;;6.34;63.47
21803;BME280;18591;47.080;22.214;2024-01-25T06:37:57;99744.34;;;6.37;63.06
21803;BME280;18591;47.080;22.214;2024-01-25T06:39:59;99734.50;;;6.40;62.91
21803;BME280;18591;47.080;22.214;2024-01-25T06:42:02;99738.91;;;6.41;63.28
21803;BME280;18591;47.080;22.214;2024-01-25T06:44:05;99730.06;;;6.39;63.09
21803;BME280;18591;47.080;22.214;2024-01-25T06:46:07;99736.31;;;6.40;63.03
21803;BME280;18591;47.080;22.214;2024-01-25T06:48:10;99740.78;;;6.38;63.27
21803;BME280;18591;47.080;22.214;2024-01-25T06:50:12;99749.53;;;6.44;63.30
21803;BME280;18591;47.080;22.214;2024-01-25T06:52:15;99743.31;;;6.44;62.95
21803;BME280;18591;47.080;22.214;2024-01-25T06:54:18;99743.47;;;6.36;63.49
21803;BME280;18591;47.080;22.214;2024-01-25T06:56:20;99744.31;;;6.38;63.42
21803;BME280;18591;47.080;22.214;2024-01-25T06:58:23;99751.66;;;6.27;63.58
21803;BME280;18591;47.080;22.214;2024-01-25T07:00:26;99749.00;;;6.24;63.45
21803;BME280;18591;47.080;22.214;2024-01-25T07:02:29;99756.19;;;6.22;63.79
21803;BME280;18591;47.080;22.214;2024-01-25T07:04:33;99760.72;;;6.15;63.80
21803;BME280;18591;47.080;22.214;2024-01-25T07:06:36;99750.91;;;6.17;63.99
21803;BME280;18591;47.080;22.214;2024-01-25T07:08:39;99753.72;;;6.08;64.32
21803;BME280;18591;47.080;22.214;2024-01-25T07:10:42;99759.09;;;6.06;64.30
21803;BME280;18591;47.080;22.214;2024-01-25T07:12:45;99761.03;;;5.95;64.78
21803;BME280;18591;47.080;22.214;2024-01-25T07:14:48;99760.16;;;5.96;64.92
21803;BME280;18591;47.080;22.214;2024-01-25T07:16:50;99756.50;;;6.02;64.51
21803;BME280;18591;47.080;22.214;2024-01-25T07:18:53;99760.84;;;6.09;64.61
21803;BME280;18591;47.080;22.214;2024-01-25T07:20:56;99767.78;;;6.19;64.32
21803;BME280;18591;47.080;22.214;2024-01-25T07:22:59;99755.38;;;6.15;64.46
21803;BME280;18591;47.080;22.214;2024-01-25T07:25:01;99758.81;;;6.23;64.17
21803;BME280;18591;47.080;22.214;2024-01-25T07:27:04;99763.19;;;6.27;64.17
21803;BME280;18591;47.080;22.214;2024-01-25T07:29:07;99760.47;;;6.29;63.84
21803;BME280;18591;47.080;22.214;2024-01-25T07:31:09;99766.53;;;6.39;64.10
21803;BME280;18591;47.080;22.214;2024-01-25T07:33:12;99760.19;;;6.46;63.79
21803;BME280;18591;47.080;22.214;2024-01-25T07:35:15;99767.22;;;6.51;63.88
21803;BME280;18591;47.080;22.214;2024-01-25T07:37:18;99763.53;;;6.59;63.65
21803;BME280;18591;47.080;22.214;2024-01-25T07:39:21;99766.22;;;6.57;64.09
21803;BME280;18591;47.080;22.214;2024-01-25T07:41:24;99771.38;;;6.66;63.70
21803;BME280;18591;47.080;22.214;2024-01-25T07:43:26;99772.25;;;6.68;63.79
21803;BME280;18591;47.080;22.214;2024-01-25T07:45:30;99770.31;;;6.75;63.67
21803;BME280;18591;47.080;22.214;2024-01-25T07:47:33;99764.91;;;6.78;63.46
21803;BME280;18591;47.080;22.214;2024-01-25T07:49:36;99774.63;;;6.84;63.80
21803;BME280;18591;47.080;22.214;2024-01-25T07:51:39;99767.44;;;6.87;63.36
21803;BME280;18591;47.080;22.214;2024-01-25T07:53:41;99768.22;;;6.91;63.61
21803;BME280;18591;47.080;22.214;2024-01-25T07:55:44;99765.53;;;6.94;63.06
21803;BME280;18591;47.080;22.214;2024-01-25T07:57:47;99768.13;;;6.97;63.35
21803;BME280;18591;47.080;22.214;2024-01-25T07:59:50;99767.22;;;6.98;63.26
21803;BME280;18591;47.080;22.214;2024-01-25T08:01:53;99766.25;;;7.02;63.12
21803;BME280;18591;47.080;22.214;2024-01-25T08:03:56;99767.97;;;7.05;63.39
21803;BME280;18591;47.080;22.214;2024-01-25T08:05:59;99761.63;;;7.10;63.18
21803;BME280;18591;47.080;22.214;2024-01-25T08:08:02;99761.56;;;7.13;63.29
21803;BME280;18591;47.080;22.214;2024-01-25T08:10:06;99766.94;;;7.12;63.46
21803;BME280;18591;47.080;22.214;2024-01-25T08:12:09;99757.00;;;7.18;63.45
21803;BME280;18591;47.080;22.214;2024-01-25T08:14:11;99749.81;;;7.22;63.20
21803;BME280;18591;47.080;22.214;2024-01-25T08:16:14;99754.16;;;7.26;63.39
21803;BME280;18591;47.080;22.214;2024-01-25T08:18:21;99747.84;;;7.30;63.14
21803;BME280;18591;47.080;22.214;2024-01-25T08:20:25;99746.03;;;7.32;63.39
21803;BME280;18591;47.080;22.214;2024-01-25T08:22:28;99745.91;;;7.37;63.48
21803;BME280;18591;47.080;22.214;2024-01-25T08:24:31;99749.38;;;7.42;63.17
21803;BME280;18591;47.080;22.214;2024-01-25T08:26:34;99736.06;;;7.40;63.35
21803;BME280;18591;47.080;22.214;2024-01-25T08:28:40;99735.19;;;7.40;63.14
21803;BME280;18591;47.080;22.214;2024-01-25T08:30:44;99727.84;;;7.48;63.22
21803;BME280;18591;47.080;22.214;2024-01-25T08:32:47;99734.00;;;7.52;63.09
21803;BME280;18591;47.080;22.214;2024-01-25T08:34:50;99726.84;;;7.54;63.28
21803;BME280;18591;47.080;22.214;2024-01-25T08:36:53;99729.50;;;7.55;63.06
21803;BME280;18591;47.080;22.214;2024-01-25T08:38:55;99732.25;;;7.51;62.92
21803;BME280;18591;47.080;22.214;2024-01-25T08:40:58;99733.81;;;7.59;63.02
21803;BME280;18591;47.080;22.214;2024-01-25T08:43:00;99739.94;;;7.64;62.84
21803;BME280;18591;47.080;22.214;2024-01-25T08:45:04;99738.06;;;7.70;62.52
21803;BME280;18591;47.080;22.214;2024-01-25T08:47:09;99733.56;;;7.72;62.81
21803;BME280;18591;47.080;22.214;2024-01-25T08:49:12;99740.53;;;7.77;62.76
21803;BME280;18591;47.080;22.214;2024-01-25T08:51:14;99736.91;;;7.81;62.71
21803;BME280;18591;47.080;22.214;2024-01-25T08:53:17;99744.84;;;7.84;62.63
21803;BME280;18591;47.080;22.214;2024-01-25T08:55:20;99741.25;;;7.85;62.58
21803;BME280;18591;47.080;22.214;2024-01-25T08:57:22;99742.00;;;7.91;62.39
21803;BME280;18591;47.080;22.214;2024-01-25T08:59:25;99740.06;;;7.97;62.66
21803;BME280;18591;47.080;22.214;2024-01-25T09:01:28;99746.22;;;8.01;62.32
21803;BME280;18591;47.080;22.214;2024-01-25T09:03:32;99747.09;;;8.01;62.64
21803;BME280;18591;47.080;22.214;2024-01-25T09:05:37;99751.56;;;8.01;62.18
21803;BME280;18591;47.080;22.214;2024-01-25T09:07:43;99751.38;;;8.08;62.43
21803;BME280;18591;47.080;22.214;2024-01-25T09:09:45;99750.41;;;8.13;62.08
21803;BME280;18591;47.080;22.214;2024-01-25T09:11:48;99750.41;;;8.13;62.01
21803;BME280;18591;47.080;22.214;2024-01-25T09:13:50;99757.00;;;7.98;62.27
21803;BME280;18591;47.080;22.214;2024-01-25T09:15:53;99758.34;;;8.16;62.53
21803;BME280;18591;47.080;22.214;2024-01-25T09:17:56;99766.28;;;8.20;62.26
21803;BME280;18591;47.080;22.214;2024-01-25T09:19:58;99765.31;;;8.23;61.97
21803;BME280;18591;47.080;22.214;2024-01-25T09:22:02;99754.50;;;8.27;62.26
21803;BME280;18591;47.080;22.214;2024-01-25T09:24:07;99757.94;;;8.33;62.28
21803;BME280;18591;47.080;22.214;2024-01-25T09:26:09;99766.88;;;8.32;61.90
21803;BME280;18591;47.080;22.214;2024-01-25T09:28:12;99766.94;;;8.28;62.07
21803;BME280;18591;47.080;22.214;2024-01-25T09:30:15;99763.22;;;8.34;62.17
21803;BME280;18591;47.080;22.214;2024-01-25T09:32:18;99761.25;;;8.42;62.24
21803;BME280;18591;47.080;22.214;2024-01-25T09:34:22;99755.97;;;8.41;62.34
21803;BME280;18591;47.080;22.214;2024-01-25T09:36:25;99764.88;;;8.41;62.02
21803;BME280;18591;47.080;22.214;2024-01-25T09:38:28;99761.34;;;8.39;62.34
21803;BME280;18591;47.080;22.214;2024-01-25T09:40:30;99762.28;;;8.37;62.51
21803;BME280;18591;47.080;22.214;2024-01-25T09:42:34;99761.00;;;8.53;62.59
21803;BME280;18591;47.080;22.214;2024-01-25T09:44:40;99758.03;;;8.64;62.26
21803;BME280;18591;47.080;22.214;2024-01-25T09:46:43;99757.16;;;8.63;61.66
21803;BME280;18591;47.080;22.214;2024-01-25T09:48:45;99749.63;;;8.78;62.12
21803;BME280;18591;47.080;22.214;2024-01-25T09:50:52;99753.81;;;8.88;61.85
21803;BME280;18591;47.080;22.214;2024-01-25T09:52:58;99742.13;;;8.90;62.10
21803;BME280;18591;47.080;22.214;2024-01-25T09:55:02;99744.59;;;8.98;61.91
21803;BME280;18591;47.080;22.214;2024-01-25T09:57:12;99746.38;;;8.99;61.53
21803;BME280;18591;47.080;22.214;2024-01-25T09:59:16;99740.81;;;9.05;61.96
21803;BME280;18591;47.080;22.214;2024-01-25T10:01:19;99743.41;;;9.08;61.40
21803;BME280;18591;47.080;22.214;2024-01-25T10:03:22;99744.44;;;9.04;61.35
21803;BME280;18591;47.080;22.214;2024-01-25T10:05:24;99741.44;;;9.15;62.05
21803;BME280;18591;47.080;22.214;2024-01-25T10:07:39;99736.44;;;9.32;62.09
21803;BME280;18591;47.080;22.214;2024-01-25T10:09:43;99726.22;;;9.45;61.86
21803;BME280;18591;47.080;22.214;2024-01-25T10:11:45;99733.00;;;9.57;62.11
21803;BME280;18591;47.080;22.214;2024-01-25T10:14:00;99734.47;;;9.67;62.36
21803;BME280;18591;47.080;22.214;2024-01-25T10:16:03;99735.97;;;9.76;61.81
21803;BME280;18591;47.080;22.214;2024-01-25T10:18:07;99733.22;;;9.79;61.46
21803;BME280;18591;47.080;22.214;2024-01-25T10:20:39;99726.28;;;9.72;60.87
21803;BME280;18591;47.080;22.214;2024-01-25T10:22:45;99727.13;;;9.74;61.82
21803;BME280;18591;47.080;22.214;2024-01-25T10:24:48;99718.34;;;9.69;61.76
21803;BME280;18591;47.080;22.214;2024-01-25T10:26:59;99728.16;;;9.70;61.21
21803;BME280;18591;47.080;22.214;2024-01-25T10:29:01;99723.53;;;9.73;61.31
21803;BME280;18591;47.080;22.214;2024-01-25T10:31:05;99721.94;;;9.68;60.66
21803;BME280;18591;47.080;22.214;2024-01-25T10:33:10;99716.56;;;9.68;61.35
21803;BME280;18591;47.080;22.214;2024-01-25T10:35:14;99732.75;;;9.66;60.79
21803;BME280;18591;47.080;22.214;2024-01-25T10:37:19;99727.16;;;9.72;61.22
21803;BME280;18591;47.080;22.214;2024-01-25T10:39:24;99722.81;;;9.68;61.77
21803;BME280;18591;47.080;22.214;2024-01-25T10:41:27;99714.59;;;9.74;61.43
21803;BME280;18591;47.080;22.214;2024-01-25T10:43:30;99714.94;;;9.64;61.26
21803;BME280;18591;47.080;22.214;2024-01-25T10:45:34;99716.41;;;9.74;61.44
21803;BME280;18591;47.080;22.214;2024-01-25T10:47:37;99708.41;;;9.71;61.33
21803;BME280;18591;47.080;22.214;2024-01-25T10:49:40;99711.09;;;9.71;60.97
21803;BME280;18591;47.080;22.214;2024-01-25T10:51:44;99699.25;;;9.78;61.10
21803;BME280;18591;47.080;22.214;2024-01-25T10:53:48;99698.28;;;9.80;60.78